sensor_id;sensor_type;location;lat;lon;timestamp;P1;durP1;ratioP1;P2;durP2;ratioP2
25609;SDS011;13479;49.044;8.716;2023-11-22T05:01:48;4.83;;;2.87;;
25609;SDS011;13479;49.044;8.716;2023-11-22T05:04:14;5.70;;;2.80;;
25609;SDS011;13479;49.044;8.716;2023-11-22T05:06:39;7.27;;;2.77;;
25609;SDS011;13479;49.044;8.716;2023-11-22T05:09:04;7.73;;;3.40;;
25609;SDS011;13479;49.044;8.716;2023-11-22T05:11:30;5.57;;;3.43;;
25609;SDS011;13479;49.044;8.716;2023-11-22T05:13:56;4.70;;;2.77;;
25609;SDS011;13479;49.044;8.716;2023-11-22T05:16:21;4.47;;;2.33;;
25609;SDS011;13479;49.044;8.716;2023-11-22T05:18:46;5.20;;;2.37;;
25609;SDS011;13479;49.044;8.716;2023-11-22T05:21:12;7.73;;;3.00;;
25609;SDS011;13479;49.044;8.716;2023-11-22T05:23:37;5.23;;;3.03;;
25609;SDS011;13479;49.044;8.716;2023-11-22T05:26:02;3.97;;;1.97;;
25609;SDS011;13479;49.044;8.716;2023-11-22T05:28:30;5.67;;;2.60;;
25609;SDS011;13479;49.044;8.716;2023-11-22T05:30:55;7.37;;;2.60;;
25609;SDS011;13479;49.044;8.716;2023-11-22T05:33:21;5.60;;;2.33;;
25609;SDS011;13479;49.044;8.716;2023-11-22T05:35:46;3.70;;;2.40;;
25609;SDS011;13479;49.044;8.716;2023-11-22T05:38:11;4.40;;;2.40;;
25609;SDS011;13479;49.044;8.716;2023-11-22T05:40:37;5.07;;;1.93;;
25609;SDS011;13479;49.044;8.716;2023-11-22T05:43:03;4.50;;;2.40;;
25609;SDS011;13479;49.044;8.716;2023-11-22T05:45:29;5.40;;;2.70;;
25609;SDS011;13479;49.044;8.716;2023-11-22T05:47:54;5.57;;;2.53;;
25609;SDS011;13479;49.044;8.716;2023-11-22T05:50:20;3.47;;;2.03;;
25609;SDS011;13479;49.044;8.716;2023-11-22T05:52:45;4.00;;;2.13;;
25609;SDS011;13479;49.044;8.716;2023-11-22T05:55:10;3.90;;;2.10;;
25609;SDS011;13479;49.044;8.716;2023-11-22T05:57:39;3.63;;;2.10;;
25609;SDS011;13479;49.044;8.716;2023-11-22T06:00:05;5.63;;;2.17;;
25609;SDS011;13479;49.044;8.716;2023-11-22T06:02:31;2.70;;;1.90;;
25609;SDS011;13479;49.044;8.716;2023-11-22T06:04:56;2.93;;;1.90;;
25609;SDS011;13479;49.044;8.716;2023-11-22T06:07:22;5.40;;;1.73;;
25609;SDS011;13479;49.044;8.716;2023-11-22T06:09:47;3.10;;;1.67;;
25609;SDS011;13479;49.044;8.716;2023-11-22T06:12:13;2.87;;;1.67;;
25609;SDS011;13479;49.044;8.716;2023-11-22T06:14:39;3.00;;;1.50;;
25609;SDS011;13479;49.044;8.716;2023-11-22T06:17:04;5.30;;;1.90;;
25609;SDS011;13479;49.044;8.716;2023-11-22T06:19:29;4.93;;;1.80;;
25609;SDS011;13479;49.044;8.716;2023-11-22T06:21:55;5.87;;;1.50;;
25609;SDS011;13479;49.044;8.716;2023-11-22T06:24:21;2.77;;;1.70;;
25609;SDS011;13479;49.044;8.716;2023-11-22T06:26:46;2.73;;;1.53;;
25609;SDS011;13479;49.044;8.716;2023-11-22T06:29:12;4.03;;;2.30;;
25609;SDS011;13479;49.044;8.716;2023-11-22T06:31:37;4.33;;;1.60;;
25609;SDS011;13479;49.044;8.716;2023-11-22T06:34:03;4.03;;;1.90;;
25609;SDS011;13479;49.044;8.716;2023-11-22T06:36:28;3.40;;;2.03;;
25609;SDS011;13479;49.044;8.716;2023-11-22T06:38:54;5.77;;;2.00;;
25609;SDS011;13479;49.044;8.716;2023-11-22T06:41:20;3.30;;;1.93;;
25609;SDS011;13479;49.044;8.716;2023-11-22T06:43:46;4.00;;;1.77;;
25609;SDS011;13479;49.044;8.716;2023-11-22T06:46:12;4.03;;;1.67;;
25609;SDS011;13479;49.044;8.716;2023-11-22T06:48:37;3.77;;;2.23;;
25609;SDS011;13479;49.044;8.716;2023-11-22T06:51:02;3.80;;;1.70;;
25609;SDS011;13479;49.044;8.716;2023-11-22T06:53:28;3.00;;;1.67;;
25609;SDS011;13479;49.044;8.716;2023-11-22T06:55:53;3.37;;;1.70;;
25609;SDS011;13479;49.044;8.716;2023-11-22T06:58:18;2.63;;;1.83;;
25609;SDS011;13479;49.044;8.716;2023-11-22T07:00:44;6.30;;;2.00;;
25609;SDS011;13479;49.044;8.716;2023-11-22T07:03:09;3.90;;;2.00;;
25609;SDS011;13479;49.044;8.716;2023-11-22T07:05:35;4.50;;;2.07;;
25609;SDS011;13479;49.044;8.716;2023-11-22T07:08:02;3.57;;;1.90;;
25609;SDS011;13479;49.044;8.716;2023-11-22T07:10:28;4.00;;;2.20;;
25609;SDS011;13479;49.044;8.716;2023-11-22T07:12:53;2.63;;;1.90;;
25609;SDS011;13479;49.044;8.716;2023-11-22T07:15:19;3.63;;;2.00;;
25609;SDS011;13479;49.044;8.716;2023-11-22T07:17:44;4.43;;;2.40;;
25609;SDS011;13479;49.044;8.716;2023-11-22T07:20:10;5.93;;;2.13;;
25609;SDS011;13479;49.044;8.716;2023-11-22T07:22:41;3.70;;;1.80;;
25609;SDS011;13479;49.044;8.716;2023-11-22T07:25:08;5.00;;;2.50;;
25609;SDS011;13479;49.044;8.716;2023-11-22T07:27:42;5.97;;;2.30;;
25609;SDS011;13479;49.044;8.716;2023-11-22T07:30:08;3.27;;;2.00;;
25609;SDS011;13479;49.044;8.716;2023-11-22T07:32:34;5.03;;;2.20;;
25609;SDS011;13479;49.044;8.716;2023-11-22T07:34:59;3.97;;;2.53;;
25609;SDS011;13479;49.044;8.716;2023-11-22T07:37:28;5.10;;;2.40;;
25609;SDS011;13479;49.044;8.716;2023-11-22T07:39:53;5.53;;;2.47;;
25609;SDS011;13479;49.044;8.716;2023-11-22T07:42:19;4.37;;;2.07;;
25609;SDS011;13479;49.044;8.716;2023-11-22T07:44:44;3.63;;;2.07;;
25609;SDS011;13479;49.044;8.716;2023-11-22T07:47:09;5.13;;;2.67;;
25609;SDS011;13479;49.044;8.716;2023-11-22T07:49:35;4.80;;;2.20;;
25609;SDS011;13479;49.044;8.716;2023-11-22T07:52:04;4.00;;;1.87;;
25609;SDS011;13479;49.044;8.716;2023-11-22T07:54:30;4.63;;;2.47;;
25609;SDS011;13479;49.044;8.716;2023-11-22T07:56:56;5.57;;;2.40;;
25609;SDS011;13479;49.044;8.716;2023-11-22T07:59:22;3.60;;;2.13;;
25609;SDS011;13479;49.044;8.716;2023-11-22T08:01:48;5.30;;;2.77;;
25609;SDS011;13479;49.044;8.716;2023-11-22T08:04:13;4.63;;;2.37;;
25609;SDS011;13479;49.044;8.716;2023-11-22T08:06:39;4.80;;;2.23;;
25609;SDS011;13479;49.044;8.716;2023-11-22T08:09:05;4.73;;;2.70;;
25609;SDS011;13479;49.044;8.716;2023-11-22T08:11:30;4.40;;;2.47;;
25609;SDS011;13479;49.044;8.716;2023-11-22T08:13:56;6.37;;;3.30;;
25609;SDS011;13479;49.044;8.716;2023-11-22T08:16:25;4.23;;;2.23;;
25609;SDS011;13479;49.044;8.716;2023-11-22T08:18:51;3.97;;;2.47;;
25609;SDS011;13479;49.044;8.716;2023-11-22T08:21:17;6.50;;;2.80;;
25609;SDS011;13479;49.044;8.716;2023-11-22T08:23:43;5.63;;;3.00;;
25609;SDS011;13479;49.044;8.716;2023-11-22T08:26:10;6.77;;;3.17;;
25609;SDS011;13479;49.044;8.716;2023-11-22T08:28:37;5.80;;;3.10;;
25609;SDS011;13479;49.044;8.716;2023-11-22T08:31:02;4.50;;;2.60;;
25609;SDS011;13479;49.044;8.716;2023-11-22T08:33:29;5.03;;;2.57;;
25609;SDS011;13479;49.044;8.716;2023-11-22T08:35:54;4.43;;;2.00;;
25609;SDS011;13479;49.044;8.716;2023-11-22T08:38:24;3.88;;;2.28;;
25609;SDS011;13479;49.044;8.716;2023-11-22T08:40:51;2.00;;;0.90;;
25609;SDS011;13479;49.044;8.716;2023-11-22T08:43:16;4.15;;;2.20;;
25609;SDS011;13479;49.044;8.716;2023-11-22T08:45:41;3.72;;;2.10;;
25609;SDS011;13479;49.044;8.716;2023-11-22T08:48:09;3.22;;;1.58;;
25609;SDS011;13479;49.044;8.716;2023-11-22T08:50:34;6.90;;;2.90;;
25609;SDS011;13479;49.044;8.716;2023-11-22T08:53:00;4.65;;;2.20;;
25609;SDS011;13479;49.044;8.716;2023-11-22T08:55:25;4.07;;;2.65;;
25609;SDS011;13479;49.044;8.716;2023-11-22T08:57:51;3.50;;;2.05;;
25609;SDS011;13479;49.044;8.716;2023-11-22T09:00:16;3.50;;;1.92;;
25609;SDS011;13479;49.044;8.716;2023-11-22T09:02:50;6.28;;;2.20;;
25609;SDS011;13479;49.044;8.716;2023-11-22T09:05:16;5.53;;;2.40;;
25609;SDS011;13479;49.044;8.716;2023-11-22T09:07:42;4.38;;;2.15;;
25609;SDS011;13479;49.044;8.716;2023-11-22T09:10:09;1.75;;;1.27;;
25609;SDS011;13479;49.044;8.716;2023-11-22T09:12:39;4.13;;;2.50;;
25609;SDS011;13479;49.044;8.716;2023-11-22T09:15:09;3.80;;;2.20;;
25609;SDS011;13479;49.044;8.716;2023-11-22T09:17:39;4.07;;;2.03;;
25609;SDS011;13479;49.044;8.716;2023-11-22T09:20:17;4.05;;;2.50;;
25609;SDS011;13479;49.044;8.716;2023-11-22T09:22:46;3.55;;;2.05;;
25609;SDS011;13479;49.044;8.716;2023-11-22T09:25:16;4.03;;;2.20;;
25609;SDS011;13479;49.044;8.716;2023-11-22T09:27:44;3.50;;;1.90;;
25609;SDS011;13479;49.044;8.716;2023-11-22T09:30:12;4.88;;;2.53;;
25609;SDS011;13479;49.044;8.716;2023-11-22T09:32:47;4.53;;;2.30;;
25609;SDS011;13479;49.044;8.716;2023-11-22T09:35:13;5.13;;;2.20;;
25609;SDS011;13479;49.044;8.716;2023-11-22T09:37:40;4.40;;;2.50;;
25609;SDS011;13479;49.044;8.716;2023-11-22T09:40:09;5.65;;;2.60;;
25609;SDS011;13479;49.044;8.716;2023-11-22T09:42:36;3.72;;;2.38;;
25609;SDS011;13479;49.044;8.716;2023-11-22T09:45:02;4.25;;;2.40;;
25609;SDS011;13479;49.044;8.716;2023-11-22T09:47:28;3.95;;;2.67;;
25609;SDS011;13479;49.044;8.716;2023-11-22T09:49:58;3.08;;;2.20;;
25609;SDS011;13479;49.044;8.716;2023-11-22T09:52:30;3.72;;;2.30;;
25609;SDS011;13479;49.044;8.716;2023-11-22T09:55:02;4.72;;;2.67;;
25609;SDS011;13479;49.044;8.716;2023-11-22T09:57:27;4.00;;;2.40;;
25609;SDS011;13479;49.044;8.716;2023-11-22T09:59:55;4.15;;;2.40;;
25609;SDS011;13479;49.044;8.716;2023-11-22T10:02:22;4.22;;;2.42;;
25609;SDS011;13479;49.044;8.716;2023-11-22T10:04:52;5.68;;;2.47;;
25609;SDS011;13479;49.044;8.716;2023-11-22T10:07:18;4.38;;;2.30;;
25609;SDS011;13479;49.044;8.716;2023-11-22T10:09:43;4.13;;;2.70;;
25609;SDS011;13479;49.044;8.716;2023-11-22T10:12:09;4.53;;;2.78;;
25609;SDS011;13479;49.044;8.716;2023-11-22T10:14:37;5.70;;;2.80;;
25609;SDS011;13479;49.044;8.716;2023-11-22T10:17:03;4.18;;;2.80;;
25609;SDS011;13479;49.044;8.716;2023-11-22T10:19:30;4.00;;;2.40;;
25609;SDS011;13479;49.044;8.716;2023-11-22T10:22:06;4.28;;;2.53;;
25609;SDS011;13479;49.044;8.716;2023-11-22T10:24:32;4.43;;;2.93;;
25609;SDS011;13479;49.044;8.716;2023-11-22T10:26:58;3.72;;;2.53;;
25609;SDS011;13479;49.044;8.716;2023-11-22T10:29:27;5.85;;;3.00;;
25609;SDS011;13479;49.044;8.716;2023-11-22T10:31:52;4.83;;;2.90;;
25609;SDS011;13479;49.044;8.716;2023-11-22T10:34:21;5.83;;;2.70;;
25609;SDS011;13479;49.044;8.716;2023-11-22T10:36:48;3.63;;;2.40;;
25609;SDS011;13479;49.044;8.716;2023-11-22T10:39:14;5.10;;;2.80;;
25609;SDS011;13479;49.044;8.716;2023-11-22T10:41:44;5.70;;;3.03;;
25609;SDS011;13479;49.044;8.716;2023-11-22T10:44:10;5.17;;;3.10;;
25609;SDS011;13479;49.044;8.716;2023-11-22T10:46:35;5.77;;;2.80;;
25609;SDS011;13479;49.044;8.716;2023-11-22T10:49:04;7.83;;;3.40;;
25609;SDS011;13479;49.044;8.716;2023-11-22T10:51:30;4.57;;;2.77;;
25609;SDS011;13479;49.044;8.716;2023-11-22T10:53:57;5.33;;;2.93;;
25609;SDS011;13479;49.044;8.716;2023-11-22T10:56:25;5.53;;;3.30;;
25609;SDS011;13479;49.044;8.716;2023-11-22T10:58:51;5.57;;;3.00;;
25609;SDS011;13479;49.044;8.716;2023-11-22T11:01:21;5.20;;;2.80;;
25609;SDS011;13479;49.044;8.716;2023-11-22T11:04:03;6.13;;;3.20;;
25609;SDS011;13479;49.044;8.716;2023-11-22T11:06:36;4.90;;;2.53;;
25609;SDS011;13479;49.044;8.716;2023-11-22T11:09:03;6.47;;;2.97;;
25609;SDS011;13479;49.044;8.716;2023-11-22T11:11:34;6.80;;;3.27;;
25609;SDS011;13479;49.044;8.716;2023-11-22T11:14:01;4.30;;;2.53;;
25609;SDS011;13479;49.044;8.716;2023-11-22T11:16:28;6.20;;;3.30;;
25609;SDS011;13479;49.044;8.716;2023-11-22T11:18:56;5.83;;;3.30;;
25609;SDS011;13479;49.044;8.716;2023-11-22T11:21:23;4.67;;;2.70;;
25609;SDS011;13479;49.044;8.716;2023-11-22T11:23:51;7.00;;;3.20;;
25609;SDS011;13479;49.044;8.716;2023-11-22T11:26:18;7.57;;;3.67;;
25609;SDS011;13479;49.044;8.716;2023-11-22T11:28:46;6.00;;;3.00;;
25609;SDS011;13479;49.044;8.716;2023-11-22T11:31:13;5.77;;;2.60;;
25609;SDS011;13479;49.044;8.716;2023-11-22T11:36:24;4.07;;;2.57;;
25609;SDS011;13479;49.044;8.716;2023-11-22T11:39:06;4.43;;;2.60;;
25609;SDS011;13479;49.044;8.716;2023-11-22T11:41:40;5.17;;;2.90;;
25609;SDS011;13479;49.044;8.716;2023-11-22T11:44:12;5.77;;;2.73;;
25609;SDS011;13479;49.044;8.716;2023-11-22T11:46:38;4.47;;;2.53;;
25609;SDS011;13479;49.044;8.716;2023-11-22T11:49:07;5.23;;;2.77;;
25609;SDS011;13479;49.044;8.716;2023-11-22T11:51:33;4.97;;;2.97;;
25609;SDS011;13479;49.044;8.716;2023-11-22T11:53:59;4.73;;;3.13;;
25609;SDS011;13479;49.044;8.716;2023-11-22T11:56:25;7.43;;;3.30;;
25609;SDS011;13479;49.044;8.716;2023-11-22T11:58:51;3.73;;;2.57;;
25609;SDS011;13479;49.044;8.716;2023-11-22T12:01:20;4.87;;;2.80;;
25609;SDS011;13479;49.044;8.716;2023-11-22T12:03:46;5.30;;;2.77;;
25609;SDS011;13479;49.044;8.716;2023-11-22T12:06:15;4.60;;;2.60;;
25609;SDS011;13479;49.044;8.716;2023-11-22T12:08:42;5.27;;;2.80;;
25609;SDS011;13479;49.044;8.716;2023-11-22T12:11:08;6.37;;;2.70;;
25609;SDS011;13479;49.044;8.716;2023-11-22T12:13:33;5.43;;;3.10;;
25609;SDS011;13479;49.044;8.716;2023-11-22T12:16:02;6.20;;;2.97;;
25609;SDS011;13479;49.044;8.716;2023-11-22T12:18:45;6.47;;;2.77;;
25609;SDS011;13479;49.044;8.716;2023-11-22T12:21:15;4.37;;;2.53;;
25609;SDS011;13479;49.044;8.716;2023-11-22T12:23:42;4.27;;;2.60;;
25609;SDS011;13479;49.044;8.716;2023-11-22T12:26:14;4.00;;;2.53;;
25609;SDS011;13479;49.044;8.716;2023-11-22T12:28:41;4.07;;;2.27;;
25609;SDS011;13479;49.044;8.716;2023-11-22T12:31:10;7.97;;;2.63;;
25609;SDS011;13479;49.044;8.716;2023-11-22T12:33:40;5.80;;;2.90;;
25609;SDS011;13479;49.044;8.716;2023-11-22T12:36:07;3.80;;;2.27;;
25609;SDS011;13479;49.044;8.716;2023-11-22T12:38:41;5.40;;;2.60;;
25609;SDS011;13479;49.044;8.716;2023-11-22T12:41:06;11.10;;;3.30;;
25609;SDS011;13479;49.044;8.716;2023-11-22T12:43:32;4.47;;;2.80;;
25609;SDS011;13479;49.044;8.716;2023-11-22T12:46:01;5.87;;;2.60;;
25609;SDS011;13479;49.044;8.716;2023-11-22T12:48:28;5.23;;;2.37;;
25609;SDS011;13479;49.044;8.716;2023-11-22T12:50:57;5.07;;;2.67;;
25609;SDS011;13479;49.044;8.716;2023-11-22T12:53:23;4.83;;;2.70;;
25609;SDS011;13479;49.044;8.716;2023-11-22T12:55:51;6.30;;;2.90;;
25609;SDS011;13479;49.044;8.716;2023-11-22T12:58:18;8.90;;;2.70;;
25609;SDS011;13479;49.044;8.716;2023-11-22T13:00:44;6.83;;;2.43;;
25609;SDS011;13479;49.044;8.716;2023-11-22T13:03:11;6.90;;;2.63;;
25609;SDS011;13479;49.044;8.716;2023-11-22T13:05:37;5.03;;;2.40;;
25609;SDS011;13479;49.044;8.716;2023-11-22T13:08:03;4.33;;;2.63;;
25609;SDS011;13479;49.044;8.716;2023-11-22T13:10:28;3.70;;;2.50;;
25609;SDS011;13479;49.044;8.716;2023-11-22T13:12:55;6.20;;;3.07;;
25609;SDS011;13479;49.044;8.716;2023-11-22T13:15:21;10.80;;;3.60;;
25609;SDS011;13479;49.044;8.716;2023-11-22T13:17:48;5.03;;;2.90;;
25609;SDS011;13479;49.044;8.716;2023-11-22T13:20:14;4.40;;;2.50;;
25609;SDS011;13479;49.044;8.716;2023-11-22T13:22:43;5.77;;;3.00;;
25609;SDS011;13479;49.044;8.716;2023-11-22T13:25:09;4.87;;;2.50;;
25609;SDS011;13479;49.044;8.716;2023-11-22T13:27:38;5.30;;;2.70;;
25609;SDS011;13479;49.044;8.716;2023-11-22T13:30:04;4.33;;;2.53;;
25609;SDS011;13479;49.044;8.716;2023-11-22T13:32:30;5.00;;;2.90;;
25609;SDS011;13479;49.044;8.716;2023-11-22T13:34:56;5.17;;;2.70;;
25609;SDS011;13479;49.044;8.716;2023-11-22T13:37:22;4.40;;;2.33;;
25609;SDS011;13479;49.044;8.716;2023-11-22T13:39:48;4.83;;;2.70;;
25609;SDS011;13479;49.044;8.716;2023-11-22T13:42:13;7.57;;;2.57;;
25609;SDS011;13479;49.044;8.716;2023-11-22T13:44:39;4.07;;;2.30;;
25609;SDS011;13479;49.044;8.716;2023-11-22T13:47:06;4.20;;;2.70;;
25609;SDS011;13479;49.044;8.716;2023-11-22T13:49:33;4.13;;;2.50;;
25609;SDS011;13479;49.044;8.716;2023-11-22T13:51:58;4.00;;;2.40;;
25609;SDS011;13479;49.044;8.716;2023-11-22T13:54:24;4.20;;;2.40;;
25609;SDS011;13479;49.044;8.716;2023-11-22T13:56:49;5.27;;;2.83;;
25609;SDS011;13479;49.044;8.716;2023-11-22T13:59:15;4.27;;;2.70;;
25609;SDS011;13479;49.044;8.716;2023-11-22T14:01:40;4.87;;;2.50;;
25609;SDS011;13479;49.044;8.716;2023-11-22T14:04:05;4.10;;;2.53;;
25609;SDS011;13479;49.044;8.716;2023-11-22T14:06:31;4.87;;;2.67;;
25609;SDS011;13479;49.044;8.716;2023-11-22T14:08:56;3.97;;;2.43;;
25609;SDS011;13479;49.044;8.716;2023-11-22T14:11:22;4.23;;;2.57;;
25609;SDS011;13479;49.044;8.716;2023-11-22T14:13:47;3.73;;;2.20;;
25609;SDS011;13479;49.044;8.716;2023-11-22T14:16:12;4.53;;;2.30;;
25609;SDS011;13479;49.044;8.716;2023-11-22T14:18:39;3.63;;;1.90;;
25609;SDS011;13479;49.044;8.716;2023-11-22T14:21:05;3.87;;;2.40;;
25609;SDS011;13479;49.044;8.716;2023-11-22T14:23:31;3.27;;;2.10;;
25609;SDS011;13479;49.044;8.716;2023-11-22T14:25:56;5.93;;;1.80;;
25609;SDS011;13479;49.044;8.716;2023-11-22T14:28:22;3.83;;;2.07;;
25609;SDS011;13479;49.044;8.716;2023-11-22T14:30:47;4.10;;;2.30;;
25609;SDS011;13479;49.044;8.716;2023-11-22T14:33:19;3.33;;;2.10;;
25609;SDS011;13479;49.044;8.716;2023-11-22T14:35:44;3.87;;;2.13;;
25609;SDS011;13479;49.044;8.716;2023-11-22T14:38:10;3.30;;;1.83;;
25609;SDS011;13479;49.044;8.716;2023-11-22T14:40:35;4.07;;;2.27;;
25609;SDS011;13479;49.044;8.716;2023-11-22T14:43:03;2.70;;;1.93;;
25609;SDS011;13479;49.044;8.716;2023-11-22T14:45:28;4.53;;;2.30;;
25609;SDS011;13479;49.044;8.716;2023-11-22T14:47:54;5.77;;;2.27;;
25609;SDS011;13479;49.044;8.716;2023-11-22T14:50:21;4.80;;;2.57;;
25609;SDS011;13479;49.044;8.716;2023-11-22T14:52:50;3.73;;;2.30;;
25609;SDS011;13479;49.044;8.716;2023-11-22T14:55:15;3.20;;;2.40;;
25609;SDS011;13479;49.044;8.716;2023-11-22T14:57:42;3.70;;;2.20;;
25609;SDS011;13479;49.044;8.716;2023-11-22T15:00:08;4.50;;;2.50;;
25609;SDS011;13479;49.044;8.716;2023-11-22T15:02:37;3.87;;;2.37;;
25609;SDS011;13479;49.044;8.716;2023-11-22T15:05:03;5.03;;;2.17;;
25609;SDS011;13479;49.044;8.716;2023-11-22T15:07:29;3.13;;;1.90;;
25609;SDS011;13479;49.044;8.716;2023-11-22T15:09:55;3.67;;;2.20;;
25609;SDS011;13479;49.044;8.716;2023-11-22T15:12:21;5.03;;;2.40;;
25609;SDS011;13479;49.044;8.716;2023-11-22T15:14:46;4.23;;;2.20;;
25609;SDS011;13479;49.044;8.716;2023-11-22T15:17:12;4.23;;;2.37;;
25609;SDS011;13479;49.044;8.716;2023-11-22T15:19:38;6.90;;;2.47;;
25609;SDS011;13479;49.044;8.716;2023-11-22T15:22:03;4.20;;;2.43;;
25609;SDS011;13479;49.044;8.716;2023-11-22T15:24:29;3.00;;;2.10;;
25609;SDS011;13479;49.044;8.716;2023-11-22T15:26:56;5.27;;;2.60;;
25609;SDS011;13479;49.044;8.716;2023-11-22T15:29:21;3.63;;;2.20;;
25609;SDS011;13479;49.044;8.716;2023-11-22T15:31:47;7.87;;;2.60;;
25609;SDS011;13479;49.044;8.716;2023-11-22T15:34:12;3.90;;;2.50;;
25609;SDS011;13479;49.044;8.716;2023-11-22T15:36:39;4.57;;;2.20;;
25609;SDS011;13479;49.044;8.716;2023-11-22T15:39:04;5.60;;;2.77;;
25609;SDS011;13479;49.044;8.716;2023-11-22T15:41:31;4.90;;;2.73;;
25609;SDS011;13479;49.044;8.716;2023-11-22T15:43:56;4.40;;;2.60;;
25609;SDS011;13479;49.044;8.716;2023-11-22T15:46:22;4.63;;;2.60;;
25609;SDS011;13479;49.044;8.716;2023-11-22T15:48:49;4.63;;;2.70;;
25609;SDS011;13479;49.044;8.716;2023-11-22T15:51:15;7.67;;;2.80;;
25609;SDS011;13479;49.044;8.716;2023-11-22T15:53:41;4.63;;;2.40;;
25609;SDS011;13479;49.044;8.716;2023-11-22T15:56:07;3.83;;;2.47;;
25609;SDS011;13479;49.044;8.716;2023-11-22T15:58:35;3.47;;;2.33;;
25609;SDS011;13479;49.044;8.716;2023-11-22T16:01:00;5.73;;;2.50;;
25609;SDS011;13479;49.044;8.716;2023-11-22T16:03:27;4.70;;;2.40;;
25609;SDS011;13479;49.044;8.716;2023-11-22T16:05:53;6.17;;;2.90;;
25609;SDS011;13479;49.044;8.716;2023-11-22T16:08:19;3.57;;;2.20;;
25609;SDS011;13479;49.044;8.716;2023-11-22T16:10:44;3.67;;;2.30;;
25609;SDS011;13479;49.044;8.716;2023-11-22T16:13:09;3.73;;;2.40;;
25609;SDS011;13479;49.044;8.716;2023-11-22T16:15:35;4.17;;;2.67;;
25609;SDS011;13479;49.044;8.716;2023-11-22T16:18:01;4.57;;;2.90;;
25609;SDS011;13479;49.044;8.716;2023-11-22T16:20:26;4.57;;;2.33;;
25609;SDS011;13479;49.044;8.716;2023-11-22T16:22:52;4.50;;;2.50;;
25609;SDS011;13479;49.044;8.716;2023-11-22T16:25:17;7.27;;;2.60;;
25609;SDS011;13479;49.044;8.716;2023-11-22T16:27:47;5.40;;;2.10;;
25609;SDS011;13479;49.044;8.716;2023-11-22T16:30:13;5.53;;;3.30;;
25609;SDS011;13479;49.044;8.716;2023-11-22T16:32:39;4.97;;;2.80;;
25609;SDS011;13479;49.044;8.716;2023-11-22T16:35:05;4.77;;;2.87;;
25609;SDS011;13479;49.044;8.716;2023-11-22T16:37:31;7.20;;;3.10;;
25609;SDS011;13479;49.044;8.716;2023-11-22T16:39:57;3.97;;;2.50;;
25609;SDS011;13479;49.044;8.716;2023-11-22T16:42:29;4.30;;;2.40;;
25609;SDS011;13479;49.044;8.716;2023-11-22T16:44:54;4.93;;;2.70;;
25609;SDS011;13479;49.044;8.716;2023-11-22T16:47:20;4.00;;;2.80;;
25609;SDS011;13479;49.044;8.716;2023-11-22T16:49:47;3.97;;;2.40;;
25609;SDS011;13479;49.044;8.716;2023-11-22T16:52:12;4.40;;;2.50;;
25609;SDS011;13479;49.044;8.716;2023-11-22T16:54:41;3.93;;;2.77;;
25609;SDS011;13479;49.044;8.716;2023-11-22T16:57:10;4.67;;;2.80;;
25609;SDS011;13479;49.044;8.716;2023-11-22T16:59:39;3.27;;;2.40;;
25609;SDS011;13479;49.044;8.716;2023-11-22T17:02:05;7.03;;;2.80;;
25609;SDS011;13479;49.044;8.716;2023-11-22T17:04:31;7.17;;;3.00;;
25609;SDS011;13479;49.044;8.716;2023-11-22T17:06:56;5.83;;;2.80;;
25609;SDS011;13479;49.044;8.716;2023-11-22T17:09:24;4.47;;;2.50;;
25609;SDS011;13479;49.044;8.716;2023-11-22T17:11:50;4.20;;;2.70;;
25609;SDS011;13479;49.044;8.716;2023-11-22T17:14:15;4.30;;;2.77;;
25609;SDS011;13479;49.044;8.716;2023-11-22T17:16:40;5.03;;;3.00;;
25609;SDS011;13479;49.044;8.716;2023-11-22T17:19:07;5.83;;;2.73;;
25609;SDS011;13479;49.044;8.716;2023-11-22T17:21:33;3.53;;;2.20;;
25609;SDS011;13479;49.044;8.716;2023-11-22T17:23:58;6.23;;;2.90;;
25609;SDS011;13479;49.044;8.716;2023-11-22T17:26:24;4.00;;;2.40;;
25609;SDS011;13479;49.044;8.716;2023-11-22T17:28:50;6.43;;;2.90;;
25609;SDS011;13479;49.044;8.716;2023-11-22T17:31:15;5.00;;;2.60;;
25609;SDS011;13479;49.044;8.716;2023-11-22T17:33:40;4.17;;;2.43;;
25609;SDS011;13479;49.044;8.716;2023-11-22T17:36:06;5.43;;;2.93;;
25609;SDS011;13479;49.044;8.716;2023-11-22T17:38:31;4.97;;;2.67;;
25609;SDS011;13479;49.044;8.716;2023-11-22T17:40:56;6.10;;;3.00;;
25609;SDS011;13479;49.044;8.716;2023-11-22T17:43:22;4.80;;;3.13;;
25609;SDS011;13479;49.044;8.716;2023-11-22T17:45:48;4.57;;;2.67;;
25609;SDS011;13479;49.044;8.716;2023-11-22T17:48:13;6.27;;;2.90;;
25609;SDS011;13479;49.044;8.716;2023-11-22T17:50:39;4.60;;;2.70;;
25609;SDS011;13479;49.044;8.716;2023-11-22T17:53:05;4.20;;;2.60;;
25609;SDS011;13479;49.044;8.716;2023-11-22T17:55:30;5.33;;;2.70;;
25609;SDS011;13479;49.044;8.716;2023-11-22T17:57:56;6.27;;;2.53;;
25609;SDS011;13479;49.044;8.716;2023-11-22T18:00:21;4.47;;;2.90;;
25609;SDS011;13479;49.044;8.716;2023-11-22T18:02:47;4.20;;;2.70;;
25609;SDS011;13479;49.044;8.716;2023-11-22T18:05:13;4.33;;;3.00;;
25609;SDS011;13479;49.044;8.716;2023-11-22T18:07:38;4.60;;;2.90;;
25609;SDS011;13479;49.044;8.716;2023-11-22T18:10:03;4.37;;;2.93;;
25609;SDS011;13479;49.044;8.716;2023-11-22T18:12:30;4.30;;;2.90;;
25609;SDS011;13479;49.044;8.716;2023-11-22T18:14:55;5.33;;;3.30;;
25609;SDS011;13479;49.044;8.716;2023-11-22T18:17:21;5.63;;;3.23;;
25609;SDS011;13479;49.044;8.716;2023-11-22T18:19:48;5.37;;;3.17;;
25609;SDS011;13479;49.044;8.716;2023-11-22T18:22:13;4.93;;;2.83;;
25609;SDS011;13479;49.044;8.716;2023-11-22T18:24:38;5.03;;;2.97;;
25609;SDS011;13479;49.044;8.716;2023-11-22T18:27:04;5.93;;;3.33;;
25609;SDS011;13479;49.044;8.716;2023-11-22T18:29:29;4.53;;;2.70;;
25609;SDS011;13479;49.044;8.716;2023-11-22T18:31:54;5.67;;;3.30;;
25609;SDS011;13479;49.044;8.716;2023-11-22T18:34:23;6.20;;;3.60;;
25609;SDS011;13479;49.044;8.716;2023-11-22T18:36:55;6.30;;;3.00;;
25609;SDS011;13479;49.044;8.716;2023-11-22T18:39:20;5.37;;;3.50;;
25609;SDS011;13479;49.044;8.716;2023-11-22T18:41:46;7.43;;;3.87;;
25609;SDS011;13479;49.044;8.716;2023-11-22T18:44:12;7.03;;;3.83;;
25609;SDS011;13479;49.044;8.716;2023-11-22T18:46:37;5.60;;;3.60;;
25609;SDS011;13479;49.044;8.716;2023-11-22T18:49:02;6.47;;;3.93;;
25609;SDS011;13479;49.044;8.716;2023-11-22T18:51:28;8.23;;;3.87;;
25609;SDS011;13479;49.044;8.716;2023-11-22T18:53:53;7.60;;;3.97;;
25609;SDS011;13479;49.044;8.716;2023-11-22T18:56:18;6.47;;;3.80;;
25609;SDS011;13479;49.044;8.716;2023-11-22T18:58:44;6.30;;;4.03;;
25609;SDS011;13479;49.044;8.716;2023-11-22T19:01:09;6.53;;;3.73;;
25609;SDS011;13479;49.044;8.716;2023-11-22T19:03:35;6.30;;;3.90;;
25609;SDS011;13479;49.044;8.716;2023-11-22T19:06:01;5.67;;;3.50;;
25609;SDS011;13479;49.044;8.716;2023-11-22T19:08:26;6.30;;;3.10;;
25609;SDS011;13479;49.044;8.716;2023-11-22T19:10:51;5.53;;;2.93;;
25609;SDS011;13479;49.044;8.716;2023-11-22T19:13:16;5.80;;;3.30;;
25609;SDS011;13479;49.044;8.716;2023-11-22T19:15:42;5.73;;;3.30;;
25609;SDS011;13479;49.044;8.716;2023-11-22T19:18:08;8.00;;;3.40;;
25609;SDS011;13479;49.044;8.716;2023-11-22T19:20:34;5.00;;;3.50;;
25609;SDS011;13479;49.044;8.716;2023-11-22T19:22:59;6.13;;;3.30;;
25609;SDS011;13479;49.044;8.716;2023-11-22T19:25:25;6.17;;;3.60;;
25609;SDS011;13479;49.044;8.716;2023-11-22T19:27:51;6.57;;;3.20;;
25609;SDS011;13479;49.044;8.716;2023-11-22T19:30:22;6.43;;;3.70;;
25609;SDS011;13479;49.044;8.716;2023-11-22T19:32:47;6.87;;;4.00;;
25609;SDS011;13479;49.044;8.716;2023-11-22T19:35:12;9.03;;;5.07;;
25609;SDS011;13479;49.044;8.716;2023-11-22T19:37:37;9.87;;;4.83;;
25609;SDS011;13479;49.044;8.716;2023-11-22T19:40:03;8.90;;;5.03;;
25609;SDS011;13479;49.044;8.716;2023-11-22T19:42:29;13.07;;;6.20;;
25609;SDS011;13479;49.044;8.716;2023-11-22T19:44:55;11.63;;;5.70;;
25609;SDS011;13479;49.044;8.716;2023-11-22T19:47:21;11.33;;;5.73;;